Time;durP1;ratioP1;P1;durP2;ratioP2;P2;SDS_P1;SDS_P2;PMS_P1;PMS_P2;Temp;Humidity;BMP_temperature;BMP_pressure;BME280_temperature;BME280_humidity;BME280_pressure;Samples;Min_cycle;Max_cycle;Signal;HPM_P1;HPM_P2
2023/12/23 00:02:30;;;;;;;;;;;;;;;;;;6280826;28;19924;-88
2023/12/23 00:05:30;;;;;;;;;;;;;;;;;;6273612;28;20250;-88
2023/12/23 00:08:30;;;;;;;;;;;;;;;;;;6271011;28;19916;-89
2023/12/23 00:11:30;;;;;;;;;;;;;;;;;;6301825;28;19912;-90
2023/12/23 00:14:30;;;;;;;;;;;;;;;;;;6298850;28;19923;-88
2023/12/23 00:17:30;;;;;;;;;;;;;;;;;;6307596;28;19912;-88
2023/12/23 00:20:30;;;;;;;;;;;;;;;;;;6310702;28;19920;-89
2023/12/23 00:23:31;;;;;;;;;;;;;;;;;;6283569;28;19912;-87
2023/12/23 00:26:31;;;;;;;;;;;;;;;;;;6293297;28;19913;-87
2023/12/23 00:29:31;;;;;;;;;;;;;;;;;;6299931;28;20094;-87
2023/12/23 00:32:31;;;;;;;;;;;;;;;;;;6299021;28;19999;-88
2023/12/23 00:35:31;;;;;;;;;;;;;;;;;;6295820;28;19919;-88
2023/12/23 00:38:31;;;;;;;;;;;;;;;;;;6302154;28;19990;-89
2023/12/23 00:41:32;;;;;;;;;;;;;;;;;;6281995;28;19913;-88
2023/12/23 00:44:32;;;;;;;;;;;;;;;;;;6283975;28;20692;-89
2023/12/23 00:47:32;;;;;;;;;;;;;;;;;;6304016;28;19912;-88
2023/12/23 00:50:34;;;;;;;;;;;;;;;;;;6315527;28;19995;-89
2023/12/23 00:53:34;;;;;;;;;;;;;;;;;;6299181;28;19962;-89
2023/12/23 00:56:34;;;;;;;;;;;;;;;;;;6290855;28;19916;-88
2023/12/23 00:59:34;;;;;;;;;;;;;;;;;;6302205;28;19975;-88
2023/12/23 01:02:34;;;;;;;;;;;;;;;;;;6289539;28;19931;-88
2023/12/23 01:05:34;;;;;;;;;;;;;;;;;;6282723;28;19917;-88
2023/12/23 01:08:35;;;;;;;;;;;;;;;;;;6281531;28;20062;-88
2023/12/23 01:11:35;;;;;;;;;;;;;;;;;;6297079;28;20024;-88
2023/12/23 01:14:35;;;;;;;;;;;;;;;;;;6281832;28;20632;-84
2023/12/23 01:17:35;;;;;;;;;;;;;;;;;;6272927;28;19912;-84
2023/12/23 01:20:38;;;;;;;;;;;;;;;;;;6261840;28;19921;-84
2023/12/23 01:23:38;;;;;;;;;;;;;;;;;;6297813;28;19986;-84
2023/12/23 01:26:38;;;;;;;;;;;;;;;;;;6298266;28;19913;-85
2023/12/23 01:29:38;;;;;;;;;;;;;;;;;;6290997;28;19917;-86
2023/12/23 01:32:39;;;;;;;;;;;;;;;;;;6301327;28;19917;-84
2023/12/23 01:35:39;;;;;;;;;;;;;;;;;;6298558;28;20374;-83
2023/12/23 01:38:40;;;;;;;;;;;;;;;;;;6297372;28;20019;-83
2023/12/23 01:41:40;;;;;;;;;;;;;;;;;;6279877;28;19923;-84
2023/12/23 01:44:40;;;;;;;;;;;;;;;;;;6299200;28;20288;-83
2023/12/23 01:47:40;;;;;;;;;;;;;;;;;;6307607;28;19923;-83
2023/12/23 01:50:41;;;;;;;;;;;;;;;;;;6281358;28;19916;-84
2023/12/23 01:53:42;;;;;;;;;;;;;;;;;;6296652;28;19949;-84
2023/12/23 01:56:42;;;;;;;;;;;;;;;;;;6296680;28;20023;-84
2023/12/23 01:59:42;;;;;;;;;;;;;;;;;;6297776;28;19927;-84
2023/12/23 02:02:42;;;;;;;;;;;;;;;;;;6282736;28;19920;-84
2023/12/23 02:05:42;;;;;;;;;;;;;;;;;;6295243;28;20004;-84
2023/12/23 02:08:42;;;;;;;;;;;;;;;;;;6298553;28;19912;-84
2023/12/23 02:11:43;;;;;;;;;;;;;;;;;;6296810;28;19913;-84
2023/12/23 02:14:43;;;;;;;;;;;;;;;;;;6288549;28;19913;-85
2023/12/23 02:17:43;;;;;;;;;;;;;;;;;;6303160;28;20322;-84
2023/12/23 02:20:43;;;;;;;;;;;;;;;;;;6301888;28;20273;-86
2023/12/23 02:23:43;;;;;;;;;;;;;;;;;;6277648;28;19912;-87
2023/12/23 02:26:43;;;;;;;;;;;;;;;;;;6305132;28;19912;-88
2023/12/23 02:29:43;;;;;;;;;;;;;;;;;;6301902;28;19935;-88
2023/12/23 02:32:44;;;;;;;;;;;;;;;;;;6300206;28;19917;-87
2023/12/23 02:35:44;;;;;;;;;;;;;;;;;;6300667;28;19999;-88
2023/12/23 02:38:44;;;;;;;;;;;;;;;;;;6291993;28;20358;-88
2023/12/23 02:41:44;;;;;;;;;;;;;;;;;;6292407;28;20273;-87
2023/12/23 02:44:44;;;;;;;;;;;;;;;;;;6298171;28;19935;-88
2023/12/23 02:47:44;;;;;;;;;;;;;;;;;;6301372;28;19938;-87
2023/12/23 02:50:44;;;;;;;;;;;;;;;;;;6302373;28;19917;-88
2023/12/23 02:53:45;;;;;;;;;;;;;;;;;;6298887;28;19912;-87
2023/12/23 02:56:45;;;;;;;;;;;;;;;;;;6302113;28;20288;-88
2023/12/23 02:59:45;;;;;;;;;;;;;;;;;;6329078;28;19927;-87
2023/12/23 03:02:45;;;;;;;;;;;;;;;;;;6316218;28;19919;-88
2023/12/23 03:05:45;;;;;;;;;;;;;;;;;;6332581;28;19916;-88
2023/12/23 03:08:45;;;;;;;;;;;;;;;;;;6321038;28;20021;-88
2023/12/23 03:11:46;;;;;;;;;;;;;;;;;;6309030;28;20360;-87
2023/12/23 03:14:46;;;;;;;;;;;;;;;;;;6325596;28;20425;-87
2023/12/23 03:17:46;;;;;;;;;;;;;;;;;;6323467;28;19912;-87
2023/12/23 03:20:47;;;;;;;;;;;;;;;;;;6309026;28;19927;-87
2023/12/23 03:23:47;;;;;;;;;;;;;;;;;;6314770;28;19912;-88
2023/12/23 03:26:47;;;;;;;;;;;;;;;;;;6304265;28;19919;-87
2023/12/23 03:29:48;;;;;;;;;;;;;;;;;;6321459;28;19919;-87
2023/12/23 03:32:48;;;;;;;;;;;;;;;;;;6311048;28;20275;-88
2023/12/23 03:35:48;;;;;;;;;;;;;;;;;;6321383;28;20360;-88
2023/12/23 03:38:48;;;;;;;;;;;;;;;;;;6326608;28;19931;-87
2023/12/23 03:41:48;;;;;;;;;;;;;;;;;;6317066;28;19965;-87
2023/12/23 03:44:48;;;;;;;;;;;;;;;;;;6326544;28;19919;-88
2023/12/23 03:47:49;;;;;;;;;;;;;;;;;;6308732;28;19912;-87
2023/12/23 03:50:49;;;;;;;;;;;;;;;;;;6292184;28;20003;-88
2023/12/23 03:53:50;;;;;;;;;;;;;;;;;;6324346;28;20120;-91
2023/12/23 03:56:50;;;;;;;;;;;;;;;;;;6326315;28;20360;-88
2023/12/23 03:59:50;;;;;;;;;;;;;;;;;;6310581;28;19920;-88
2023/12/23 04:02:50;;;;;;;;;;;;;;;;;;6301017;28;19968;-88
2023/12/23 04:05:50;;;;;;;;;;;;;;;;;;6311204;28;19923;-88
2023/12/23 04:08:50;;;;;;;;;;;;;;;;;;6325106;28;19949;-87
2023/12/23 04:11:51;;;;;;;;;;;;;;;;;;6320457;28;19916;-88
2023/12/23 04:14:51;;;;;;;;;;;;;;;;;;6314886;28;19912;-87
2023/12/23 04:17:51;;;;;;;;;;;;;;;;;;6300060;28;19915;-88
2023/12/23 04:20:51;;;;;;;;;;;;;;;;;;6315572;28;20292;-88
2023/12/23 04:23:51;;;;;;;;;;;;;;;;;;6322952;28;19916;-88
2023/12/23 04:26:51;;;;;;;;;;;;;;;;;;6296123;28;19912;-87
2023/12/23 04:29:52;;;;;;;;;;;;;;;;;;6312267;28;20390;-88
2023/12/23 04:32:52;;;;;;;;;;;;;;;;;;6307600;28;20372;-89
2023/12/23 04:35:52;;;;;;;;;;;;;;;;;;6307708;28;19935;-89
2023/12/23 04:38:52;;;;;;;;;;;;;;;;;;6302352;28;19969;-88
2023/12/23 04:41:53;;;;;;;;;;;;;;;;;;6324064;28;19912;-89
2023/12/23 04:44:53;;;;;;;;;;;;;;;;;;6324244;28;19912;-89
2023/12/23 04:47:53;;;;;;;;;;;;;;;;;;6329965;28;19912;-89
2023/12/23 04:50:54;;;;;;;;;;;;;;;;;;6329629;28;19977;-89
2023/12/23 04:53:54;;;;;;;;;;;;;;;;;;6286938;28;19916;-90
2023/12/23 04:56:54;;;;;;;;;;;;;;;;;;6300663;28;19958;-89
2023/12/23 04:59:54;;;;;;;;;;;;;;;;;;6327125;28;20279;-89
2023/12/23 05:02:54;;;;;;;;;;;;;;;;;;6323151;28;20062;-88
2023/12/23 05:05:54;;;;;;;;;;;;;;;;;;6325449;28;19916;-87
2023/12/23 05:08:54;;;;;;;;;;;;;;;;;;6325147;28;19912;-88
2023/12/23 05:11:55;;;;;;;;;;;;;;;;;;6307513;28;19916;-89
2023/12/23 05:14:55;;;;;;;;;;;;;;;;;;6298847;28;19912;-88
2023/12/23 05:17:55;;;;;;;;;;;;;;;;;;6308252;28;19919;-88
2023/12/23 05:20:55;;;;;;;;;;;;;;;;;;6288555;28;19916;-88
2023/12/23 05:23:58;;;;;;;;;;;;;;;;;;6307749;28;22220;-89
2023/12/23 05:26:58;;;;;;;;;;;;;;;;;;6304491;28;19923;-89
2023/12/23 05:29:58;;;;;;;;;;;;;;;;;;6319381;28;19913;-88
2023/12/23 05:32:58;;;;;;;;;;;;;;;;;;6326066;28;19919;-89
2023/12/23 05:35:58;;;;;;;;;;;;;;;;;;6324791;28;19935;-88
2023/12/23 05:38:59;;;;;;;;;;;;;;;;;;6303047;28;19926;-89
2023/12/23 05:41:59;;;;;;;;;;;;;;;;;;6315447;28;19926;-88
2023/12/23 05:44:59;;;;;;;;;;;;;;;;;;6301434;28;19920;-88
2023/12/23 05:48:00;;;;;;;;;;;;;;;;;;6302249;28;19913;-88
2023/12/23 05:51:00;;;;;;;;;;;;;;;;;;6320571;28;19966;-88
2023/12/23 05:54:00;;;;;;;;;;;;;;;;;;6304654;28;19916;-88
2023/12/23 05:57:00;;;;;;;;;;;;;;;;;;6319961;28;19920;-88
2023/12/23 06:00:00;;;;;;;;;;;;;;;;;;6298308;28;19920;-88
2023/12/23 06:03:00;;;;;;;;;;;;;;;;;;6305841;28;19924;-88
2023/12/23 06:06:03;;;;;;;;;;;;;;;;;;6324087;28;19924;-88
2023/12/23 06:09:04;;;;;;;;;;;;;;;;;;6323745;28;19916;-88
2023/12/23 06:12:04;;;;;;;;;;;;;;;;;;6323083;28;19999;-88
2023/12/23 06:15:04;;;;;;;;;;;;;;;;;;6324079;28;19912;-88
2023/12/23 06:18:04;;;;;;;;;;;;;;;;;;6327452;28;19912;-89
2023/12/23 06:21:04;;;;;;;;;;;;;;;;;;6315558;28;20006;-88
2023/12/23 06:24:04;;;;;;;;;;;;;;;;;;6318332;28;19955;-89
2023/12/23 06:27:05;;;;;;;;;;;;;;;;;;6314037;28;19919;-88
2023/12/23 06:30:05;;;;;;;;;;;;;;;;;;6324300;28;19948;-88
2023/12/23 06:33:05;;;;;;;;;;;;;;;;;;6326030;28;19935;-88
2023/12/23 06:36:08;;;;;;;;;;;;;;;;;;6311585;28;19934;-88
2023/12/23 06:39:08;;;;;;;;;;;;;;;;;;6324607;28;20414;-88
2023/12/23 06:42:08;;;;;;;;;;;;;;;;;;6326051;28;19912;-87
2023/12/23 06:45:08;;;;;;;;;;;;;;;;;;6300968;28;20015;-88
2023/12/23 06:48:08;;;;;;;;;;;;;;;;;;6312813;28;20319;-88
2023/12/23 06:51:09;;;;;;;;;;;;;;;;;;6300565;28;20328;-87
2023/12/23 06:54:09;;;;;;;;;;;;;;;;;;6305521;28;20003;-88
2023/12/23 06:57:09;;;;;;;;;;;;;;;;;;6305965;28;19916;-87
2023/12/23 07:00:10;;;;;;;;;;;;;;;;;;6288589;28;19935;-87
2023/12/23 07:03:10;;;;;;;;;;;;;;;;;;6287044;28;19925;-87
2023/12/23 07:06:10;;;;;;;;;;;;;;;;;;6305655;28;20120;-89
2023/12/23 07:09:10;;;;;;;;;;;;;;;;;;6296400;28;19923;-89
2023/12/23 07:12:10;;;;;;;;;;;;;;;;;;6302535;28;19916;-89
2023/12/23 07:15:10;;;;;;;;;;;;;;;;;;6295916;28;20365;-89
2023/12/23 07:18:11;;;;;;;;;;;;;;;;;;6301285;28;19920;-89
2023/12/23 07:21:11;;;;;;;;;;;;;;;;;;6306069;28;19925;-89
2023/12/23 07:24:11;;;;;;;;;;;;;;;;;;6312712;28;20349;-87
2023/12/23 07:27:11;;;;;;;;;;;;;;;;;;6306750;28;19912;-88
2023/12/23 07:30:12;;;;;;;;;;;;;;;;;;6317792;28;20363;-88
2023/12/23 07:33:13;;;;;;;;;;;;;;;;;;6302027;28;19912;-89
2023/12/23 07:36:13;;;;;;;;;;;;;;;;;;6294997;28;20297;-89
2023/12/23 07:39:14;;;;;;;;;;;;;;;;;;6293684;28;19921;-89
2023/12/23 07:42:14;;;;;;;;;;;;;;;;;;6291679;28;19912;-88
2023/12/23 07:45:14;;;;;;;;;;;;;;;;;;6301473;28;19913;-89
2023/12/23 07:48:14;;;;;;;;;;;;;;;;;;6302170;28;20288;-88
2023/12/23 07:51:15;;;;;;;;;;;;;;;;;;6295771;28;19920;-89
2023/12/23 07:54:15;;;;;;;;;;;;;;;;;;6299904;28;19924;-88
2023/12/23 07:57:15;;;;;;;;;;;;;;;;;;6297103;28;19920;-89
2023/12/23 08:00:15;;;;;;;;;;;;;;;;;;6288098;28;19924;-89
2023/12/23 08:03:15;;;;;;;;;;;;;;;;;;6293244;28;19928;-88
2023/12/23 08:06:16;;;;;;;;;;;;;;;;;;6282558;28;19913;-88
2023/12/23 08:09:16;;;;;;;;;;;;;;;;;;6293367;28;19920;-88
2023/12/23 08:12:17;;;;;;;;;;;;;;;;;;6288952;28;19912;-87
2023/12/23 08:15:17;;;;;;;;;;;;;;;;;;6298199;28;19912;-84
2023/12/23 08:18:17;;;;;;;;;;;;;;;;;;6297783;28;19958;-85
2023/12/23 08:21:17;;;;;;;;;;;;;;;;;;6297129;28;19921;-84
2023/12/23 08:24:17;;;;;;;;;;;;;;;;;;6293475;28;19912;-85
2023/12/23 08:27:18;;;;;;;;;;;;;;;;;;6291843;28;19920;-85
2023/12/23 08:30:18;;;;;;;;;;;;;;;;;;6297404;28;20387;-86
2023/12/23 08:33:18;;;;;;;;;;;;;;;;;;6296613;28;19963;-86
2023/12/23 08:36:18;;;;;;;;;;;;;;;;;;6294960;28;19912;-86
2023/12/23 08:39:18;;;;;;;;;;;;;;;;;;6297162;28;19920;-86
2023/12/23 08:42:18;;;;;;;;;;;;;;;;;;6297615;28;19912;-85
2023/12/23 08:45:18;;;;;;;;;;;;;;;;;;6288875;28;19948;-85
2023/12/23 08:48:19;;;;;;;;;;;;;;;;;;6301002;28;19920;-87
2023/12/23 08:51:19;;;;;;;;;;;;;;;;;;6300824;28;19920;-88
2023/12/23 08:54:19;;;;;;;;;;;;;;;;;;6299430;28;19920;-83
2023/12/23 08:57:19;;;;;;;;;;;;;;;;;;6290131;28;19919;-85
2023/12/23 09:00:19;;;;;;;;;;;;;;;;;;6306044;28;19966;-85
2023/12/23 09:03:19;;;;;;;;;;;;;;;;;;6287023;28;19928;-82
2023/12/23 09:06:19;;;;;;;;;;;;;;;;;;6295404;28;19927;-83
2023/12/23 09:09:20;;;;;;;;;;;;;;;;;;6299502;28;20420;-83
2023/12/23 09:12:20;;;;;;;;;;;;;;;;;;6299479;28;19951;-87
2023/12/23 09:15:20;;;;;;;;;;;;;;;;;;6298212;28;19955;-86
2023/12/23 09:18:20;;;;;;;;;;;;;;;;;;6298736;28;19909;-85
2023/12/23 09:21:20;;;;;;;;;;;;;;;;;;6282387;28;20572;-87
2023/12/23 09:24:20;;;;;;;;;;;;;;;;;;6283199;28;19947;-90
2023/12/23 09:27:20;;;;;;;;;;;;;;;;;;6299565;28;19923;-89
2023/12/23 09:30:21;;;;;;;;;;;;;;;;;;6296291;28;19917;-90
2023/12/23 09:33:21;;;;;;;;;;;;;;;;;;6296852;28;19917;-90
2023/12/23 09:36:21;;;;;;;;;;;;;;;;;;6301988;28;19956;-90
2023/12/23 09:39:21;;;;;;;;;;;;;;;;;;6308001;28;19916;-90
2023/12/23 09:42:21;;;;;;;;;;;;;;;;;;6297222;28;19916;-91
2023/12/23 09:45:21;;;;;;;;;;;;;;;;;;6281437;28;19912;-90
2023/12/23 09:48:22;;;;;;;;;;;;;;;;;;6291475;28;19958;-91
2023/12/23 09:51:22;;;;;;;;;;;;;;;;;;6268951;28;19935;-90
2023/12/23 09:54:22;;;;;;;;;;;;;;;;;;6293245;28;19909;-88
2023/12/23 09:57:22;;;;;;;;;;;;;;;;;;6292070;28;19961;-88
2023/12/23 10:00:22;;;;;;;;;;;;;;;;;;6299717;28;20357;-88
2023/12/23 10:03:22;;;;;;;;;;;;;;;;;;6279160;28;19913;-88
2023/12/23 10:06:23;;;;;;;;;;;;;;;;;;6288137;28;19935;-87
2023/12/23 10:09:23;;;;;;;;;;;;;;;;;;6284924;28;19913;-89
2023/12/23 10:12:23;;;;;;;;;;;;;;;;;;6298645;28;19919;-88
2023/12/23 10:15:23;;;;;;;;;;;;;;;;;;6296700;28;19985;-88
2023/12/23 10:18:23;;;;;;;;;;;;;;;;;;6294659;28;20292;-88
2023/12/23 10:21:24;;;;;;;;;;;;;;;;;;6295103;28;19965;-86
2023/12/23 10:24:24;;;;;;;;;;;;;;;;;;6281181;28;20007;-87
2023/12/23 10:27:24;;;;;;;;;;;;;;;;;;6280769;28;19962;-87
2023/12/23 10:30:25;;;;;;;;;;;;;;;;;;6293893;28;20008;-86
2023/12/23 10:33:25;;;;;;;;;;;;;;;;;;6309020;28;19913;-86
2023/12/23 10:36:26;;;;;;;;;;;;;;;;;;6297640;28;20315;-85
2023/12/23 10:39:26;;;;;;;;;;;;;;;;;;6291176;28;19936;-84
2023/12/23 10:42:26;;;;;;;;;;;;;;;;;;6308047;28;19913;-82
2023/12/23 10:45:26;;;;;;;;;;;;;;;;;;6301592;28;19913;-83
2023/12/23 10:48:26;;;;;;;;;;;;;;;;;;6300229;28;19912;-82
2023/12/23 10:51:27;;;;;;;;;;;;;;;;;;6305182;28;19912;-83
2023/12/23 10:54:27;;;;;;;;;;;;;;;;;;6295371;28;19919;-83
2023/12/23 10:57:27;;;;;;;;;;;;;;;;;;6296202;28;19913;-83
2023/12/23 11:00:28;;;;;;;;;;;;;;;;;;6281042;28;19986;-82
2023/12/23 11:03:28;;;;;;;;;;;;;;;;;;6294153;28;19924;-82
2023/12/23 11:06:28;;;;;;;;;;;;;;;;;;6301242;28;20385;-82
2023/12/23 11:09:28;;;;;;;;;;;;;;;;;;6292824;28;19959;-82
2023/12/23 11:12:28;;;;;;;;;;;;;;;;;;6301166;28;20013;-85
2023/12/23 11:15:28;;;;;;;;;;;;;;;;;;6287204;28;19979;-85
2023/12/23 11:18:28;;;;;;;;;;;;;;;;;;6300172;28;19940;-85
2023/12/23 11:21:30;;;;;;;;;;;;;;;;;;6278045;28;21620;-84
2023/12/23 11:24:30;;;;;;;;;;;;;;;;;;6298887;28;19917;-85
2023/12/23 11:27:33;;;;;;;;;;;;;;;;;;6295744;28;20277;-84
2023/12/23 11:30:33;;;;;;;;;;;;;;;;;;6300971;28;19912;-83
2023/12/23 11:33:35;;;;;;;;;;;;;;;;;;6302343;28;19924;-84
2023/12/23 11:36:35;;;;;;;;;;;;;;;;;;6284783;28;19955;-85
2023/12/23 11:39:35;;;;;;;;;;;;;;;;;;6275744;28;19921;-81
2023/12/23 11:42:35;;;;;;;;;;;;;;;;;;6290422;28;19956;-85
2023/12/23 11:45:35;;;;;;;;;;;;;;;;;;6301708;28;19962;-89
2023/12/23 11:48:35;;;;;;;;;;;;;;;;;;6278859;28;19912;-87
2023/12/23 11:51:36;;;;;;;;;;;;;;;;;;6301637;28;19912;-94
2023/12/23 11:54:36;;;;;;;;;;;;;;;;;;6282340;28;19971;-90
2023/12/23 11:57:36;;;;;;;;;;;;;;;;;;6302171;28;19955;-90
2023/12/23 12:00:38;;;;;;;;;;;;;;;;;;6285445;28;19920;-89
2023/12/23 12:03:38;;;;;;;;;;;;;;;;;;6301579;28;19919;-91
2023/12/23 12:06:38;;;;;;;;;;;;;;;;;;6303824;28;19912;-92
2023/12/23 12:09:38;;;;;;;;;;;;;;;;;;6280181;28;20011;-93
2023/12/23 12:12:39;;;;;;;;;;;;;;;;;;6287679;28;20008;-92
2023/12/23 12:15:39;;;;;;;;;;;;;;;;;;6276837;28;20400;-90
2023/12/23 12:18:39;;;;;;;;;;;;;;;;;;6279076;28;19913;-89
2023/12/23 12:21:39;;;;;;;;;;;;;;;;;;6281671;28;19917;-90
2023/12/23 12:24:41;;;;;;;;;;;;;;;;;;6284249;28;19912;-89
2023/12/23 12:27:41;;;;;;;;;;;;;;;;;;6284151;28;19917;-91
2023/12/23 12:30:41;;;;;;;;;;;;;;;;;;6282696;28;19917;-87
2023/12/23 12:33:41;;;;;;;;;;;;;;;;;;6282531;28;19923;-86
2023/12/23 12:36:41;;;;;;;;;;;;;;;;;;6298980;28;19939;-87
2023/12/23 12:39:41;;;;;;;;;;;;;;;;;;6282048;28;19974;-86
2023/12/23 12:42:41;;;;;;;;;;;;;;;;;;6299454;28;19959;-85
2023/12/23 12:45:41;;;;;;;;;;;;;;;;;;6281142;28;19921;-86
2023/12/23 12:48:42;;;;;;;;;;;;;;;;;;6279209;28;19917;-86
2023/12/23 12:51:42;;;;;;;;;;;;;;;;;;6294622;28;19916;-85
2023/12/23 12:54:42;;;;;;;;;;;;;;;;;;6275177;28;19916;-85
2023/12/23 12:57:45;;;;;;;;;;;;;;;;;;6297012;28;20328;-84
2023/12/23 13:00:45;;;;;;;;;;;;;;;;;;6291644;28;21242;-83
2023/12/23 13:03:45;;;;;;;;;;;;;;;;;;6294098;28;19943;-83
2023/12/23 13:06:45;;;;;;;;;;;;;;;;;;6280758;28;20268;-82
2023/12/23 13:09:45;;;;;;;;;;;;;;;;;;6299719;28;19919;-82
2023/12/23 13:12:45;;;;;;;;;;;;;;;;;;6298453;28;19958;-81
2023/12/23 13:15:46;;;;;;;;;;;;;;;;;;6297333;28;19920;-84
2023/12/23 13:18:46;;;;;;;;;;;;;;;;;;6271993;28;19912;-77
2023/12/23 13:21:46;;;;;;;;;;;;;;;;;;6295634;28;20011;-81
2023/12/23 13:24:46;;;;;;;;;;;;;;;;;;6287967;28;20019;-81
2023/12/23 13:27:46;;;;;;;;;;;;;;;;;;6298606;28;19992;-81
2023/12/23 13:30:46;;;;;;;;;;;;;;;;;;6298264;28;20024;-83
2023/12/23 13:33:46;;;;;;;;;;;;;;;;;;6297450;28;19995;-82
2023/12/23 13:36:46;;;;;;;;;;;;;;;;;;6299356;28;20019;-83
2023/12/23 13:39:47;;;;;;;;;;;;;;;;;;6295421;28;20015;-82
2023/12/23 13:42:47;;;;;;;;;;;;;;;;;;6297793;28;20036;-83
2023/12/23 13:45:47;;;;;;;;;;;;;;;;;;6277575;28;20019;-81
2023/12/23 13:48:47;;;;;;;;;;;;;;;;;;6277251;28;20049;-84
2023/12/23 13:51:47;;;;;;;;;;;;;;;;;;6295450;28;19999;-83
2023/12/23 13:54:47;;;;;;;;;;;;;;;;;;6291379;28;19959;-81
2023/12/23 13:57:47;;;;;;;;;;;;;;;;;;6290685;28;19913;-82
2023/12/23 14:00:48;;;;;;;;;;;;;;;;;;6281135;28;19920;-81
2023/12/23 14:03:48;;;;;;;;;;;;;;;;;;6285563;28;20339;-80
2023/12/23 14:06:48;;;;;;;;;;;;;;;;;;6290450;28;19936;-81
2023/12/23 14:09:48;;;;;;;;;;;;;;;;;;6296905;28;19913;-80
2023/12/23 14:12:48;;;;;;;;;;;;;;;;;;6287549;28;19913;-82
2023/12/23 14:15:48;;;;;;;;;;;;;;;;;;6289833;28;19916;-81
2023/12/23 14:18:49;;;;;;;;;;;;;;;;;;6302302;28;19916;-81
2023/12/23 14:21:49;;;;;;;;;;;;;;;;;;5950355;28;10000794;-82
2023/12/23 14:24:49;;;;;;;;;;;;;;;;;;6276393;28;19913;-83
2023/12/23 14:27:49;;;;;;;;;;;;;;;;;;5934662;28;9999646;-82
2023/12/23 14:30:49;;;;;;;;;;;;;;;;;;6285899;28;19912;-84
2023/12/23 14:33:51;;;;;;;;;;;;;;;;;;6300842;28;19996;-82
2023/12/23 14:36:51;;;;;;;;;;;;;;;;;;6299205;28;19959;-83
2023/12/23 14:39:51;;;;;;;;;;;;;;;;;;6295392;28;20008;-84
2023/12/23 14:42:52;;;;;;;;;;;;;;;;;;6291450;28;20325;-84
2023/12/23 14:45:52;;;;;;;;;;;;;;;;;;6284292;28;20276;-85
2023/12/23 14:48:52;;;;;;;;;;;;;;;;;;6291513;28;20007;-83
2023/12/23 14:51:52;;;;;;;;;;;;;;;;;;6295623;28;20019;-83
2023/12/23 14:54:52;;;;;;;;;;;;;;;;;;6283116;28;20008;-82
2023/12/23 14:57:52;;;;;;;;;;;;;;;;;;6285063;28;19975;-80
2023/12/23 15:00:52;;;;;;;;;;;;;;;;;;6279723;28;19967;-83
2023/12/23 15:03:53;;;;;;;;;;;;;;;;;;6294575;28;20354;-79
2023/12/23 15:06:53;;;;;;;;;;;;;;;;;;6291217;28;19913;-80
2023/12/23 15:09:53;;;;;;;;;;;;;;;;;;6266227;28;19913;-80
2023/12/23 15:12:53;;;;;;;;;;;;;;;;;;6272477;28;20429;-81
2023/12/23 15:15:53;;;;;;;;;;;;;;;;;;6291324;28;20410;-81
2023/12/23 15:18:54;;;;;;;;;;;;;;;;;;6287200;28;19921;-83
2023/12/23 15:21:55;;;;;;;;;;;;;;;;;;6288163;28;19920;-82
2023/12/23 15:24:55;;;;;;;;;;;;;;;;;;6290326;28;20324;-83
2023/12/23 15:27:55;;;;;;;;;;;;;;;;;;6289940;28;19978;-83
2023/12/23 15:30:56;;;;;;;;;;;;;;;;;;6280585;28;19912;-81
2023/12/23 15:33:56;;;;;;;;;;;;;;;;;;6286767;28;20004;-83
2023/12/23 15:36:56;;;;;;;;;;;;;;;;;;6285214;28;19916;-81
2023/12/23 15:39:56;;;;;;;;;;;;;;;;;;6285137;28;19924;-80
2023/12/23 15:42:56;;;;;;;;;;;;;;;;;;6285617;28;19923;-80
2023/12/23 15:45:56;;;;;;;;;;;;;;;;;;6279726;28;19912;-80
2023/12/23 15:48:56;;;;;;;;;;;;;;;;;;6285466;28;20004;-80
2023/12/23 15:51:56;;;;;;;;;;;;;;;;;;6292278;28;20011;-82
2023/12/23 15:54:57;;;;;;;;;;;;;;;;;;6289707;28;19995;-77
2023/12/23 15:57:57;;;;;;;;;;;;;;;;;;6284379;28;20003;-82
2023/12/23 16:00:57;;;;;;;;;;;;;;;;;;6287756;28;19991;-82
2023/12/23 16:03:57;;;;;;;;;;;;;;;;;;6280614;28;19919;-74
2023/12/23 16:06:57;;;;;;;;;;;;;;;;;;6288242;28;19963;-82
2023/12/23 16:09:58;;;;;;;;;;;;;;;;;;6288483;28;19912;-81
2023/12/23 16:12:58;;;;;;;;;;;;;;;;;;6284760;28;19920;-84
2023/12/23 16:15:58;;;;;;;;;;;;;;;;;;6285910;28;19912;-82
2023/12/23 16:18:58;;;;;;;;;;;;;;;;;;6286235;28;19924;-82
2023/12/23 16:21:58;;;;;;;;;;;;;;;;;;6288638;28;19913;-84
2023/12/23 16:24:59;;;;;;;;;;;;;;;;;;6291319;28;19912;-83
2023/12/23 16:27:59;;;;;;;;;;;;;;;;;;6280145;28;19913;-84
2023/12/23 16:30:59;;;;;;;;;;;;;;;;;;6284163;28;19944;-83
2023/12/23 16:33:59;;;;;;;;;;;;;;;;;;6284302;28;19913;-83
2023/12/23 16:36:59;;;;;;;;;;;;;;;;;;6271451;28;19919;-82
2023/12/23 16:40:00;;;;;;;;;;;;;;;;;;6274448;28;19929;-81
2023/12/23 16:43:00;;;;;;;;;;;;;;;;;;6288275;28;19958;-82
2023/12/23 16:46:00;;;;;;;;;;;;;;;;;;6277846;28;19912;-75
2023/12/23 16:49:00;;;;;;;;;;;;;;;;;;6278083;28;19917;-82
2023/12/23 16:52:01;;;;;;;;;;;;;;;;;;6282984;28;20392;-81
2023/12/23 16:55:02;;;;;;;;;;;;;;;;;;6280931;28;19944;-82
2023/12/23 16:58:02;;;;;;;;;;;;;;;;;;6288896;28;19979;-82
2023/12/23 17:01:02;;;;;;;;;;;;;;;;;;6288738;28;19924;-82
2023/12/23 17:04:02;;;;;;;;;;;;;;;;;;6283530;28;19920;-82
2023/12/23 17:07:02;;;;;;;;;;;;;;;;;;6268753;28;19991;-83
2023/12/23 17:10:02;;;;;;;;;;;;;;;;;;6292417;28;19936;-74
2023/12/23 17:13:02;;;;;;;;;;;;;;;;;;6283138;28;20211;-75
2023/12/23 17:16:03;;;;;;;;;;;;;;;;;;6285926;28;19921;-75
2023/12/23 17:19:03;;;;;;;;;;;;;;;;;;6277064;28;19921;-90
2023/12/23 17:22:03;;;;;;;;;;;;;;;;;;6273030;28;19973;-82
2023/12/23 17:25:03;;;;;;;;;;;;;;;;;;6279770;28;19962;-83
2023/12/23 17:28:03;;;;;;;;;;;;;;;;;;6285841;28;20003;-84
2023/12/23 17:31:03;;;;;;;;;;;;;;;;;;6289024;28;20098;-85
2023/12/23 17:34:03;;;;;;;;;;;;;;;;;;6277216;28;20416;-79
2023/12/23 17:37:04;;;;;;;;;;;;;;;;;;6284701;28;19935;-79
2023/12/23 17:40:04;;;;;;;;;;;;;;;;;;6285186;28;19916;-85
2023/12/23 17:43:06;;;;;;;;;;;;;;;;;;6288215;28;19959;-89
2023/12/23 17:46:06;;;;;;;;;;;;;;;;;;6289584;28;20301;-83
2023/12/23 17:49:06;;;;;;;;;;;;;;;;;;6281646;28;19908;-84
2023/12/23 17:52:06;;;;;;;;;;;;;;;;;;6288831;28;20452;-83
2023/12/23 17:55:06;;;;;;;;;;;;;;;;;;6286820;28;19913;-83
2023/12/23 17:58:07;;;;;;;;;;;;;;;;;;6281078;28;19912;-84
2023/12/23 18:01:07;;;;;;;;;;;;;;;;;;6286232;28;19982;-86
2023/12/23 18:04:07;;;;;;;;;;;;;;;;;;6285226;28;19913;-86
2023/12/23 18:07:07;;;;;;;;;;;;;;;;;;6284811;28;19916;-85
2023/12/23 18:10:07;;;;;;;;;;;;;;;;;;6275536;28;19920;-83
2023/12/23 18:13:10;;;;;;;;;;;;;;;;;;6290580;28;19923;-84
2023/12/23 18:16:10;;;;;;;;;;;;;;;;;;6289263;28;20003;-85
2023/12/23 18:19:11;;;;;;;;;;;;;;;;;;6287874;28;19921;-86
2023/12/23 18:22:11;;;;;;;;;;;;;;;;;;6290727;28;19916;-84
2023/12/23 18:25:11;;;;;;;;;;;;;;;;;;6286697;28;19920;-88
2023/12/23 18:28:12;;;;;;;;;;;;;;;;;;6281342;28;19928;-85
2023/12/23 18:31:13;;;;;;;;;;;;;;;;;;6278847;28;20456;-90
2023/12/23 18:34:13;;;;;;;;;;;;;;;;;;6284245;28;20297;-92
2023/12/23 18:37:13;;;;;;;;;;;;;;;;;;6294720;28;19920;-86
2023/12/23 18:40:14;;;;;;;;;;;;;;;;;;6272498;28;20324;-88
2023/12/23 18:43:14;;;;;;;;;;;;;;;;;;6266928;28;19912;-88
2023/12/23 18:46:14;;;;;;;;;;;;;;;;;;6286178;28;19983;-86
2023/12/23 18:49:14;;;;;;;;;;;;;;;;;;6287585;28;20031;-88
2023/12/23 18:52:14;;;;;;;;;;;;;;;;;;6288840;28;19918;-86
2023/12/23 18:55:15;;;;;;;;;;;;;;;;;;6273694;28;19920;-91
2023/12/23 18:58:15;;;;;;;;;;;;;;;;;;6278568;28;20113;-90
2023/12/23 19:01:15;;;;;;;;;;;;;;;;;;6267947;28;19920;-88
2023/12/23 19:04:15;;;;;;;;;;;;;;;;;;6291987;28;20287;-87
2023/12/23 19:07:15;;;;;;;;;;;;;;;;;;6290753;28;20017;-87
2023/12/23 19:10:15;;;;;;;;;;;;;;;;;;6289183;28;19948;-86
2023/12/23 19:13:16;;;;;;;;;;;;;;;;;;6279233;28;19920;-84
2023/12/23 19:16:16;;;;;;;;;;;;;;;;;;6285192;28;20007;-87
2023/12/23 19:19:16;;;;;;;;;;;;;;;;;;6290696;28;19925;-86
2023/12/23 19:22:20;;;;;;;;;;;;;;;;;;6285979;28;19991;-88
2023/12/23 19:25:20;;;;;;;;;;;;;;;;;;6287832;28;19920;-87
2023/12/23 19:28:20;;;;;;;;;;;;;;;;;;6279382;28;19936;-89
2023/12/23 19:31:21;;;;;;;;;;;;;;;;;;6289398;28;19920;-86
2023/12/23 19:34:21;;;;;;;;;;;;;;;;;;6265097;28;19948;-82
2023/12/23 19:37:21;;;;;;;;;;;;;;;;;;6284926;28;19920;-85
2023/12/23 19:40:21;;;;;;;;;;;;;;;;;;6276050;28;19916;-87
2023/12/23 19:43:23;;;;;;;;;;;;;;;;;;6296135;28;19962;-88
2023/12/23 19:46:23;;;;;;;;;;;;;;;;;;6292994;28;19917;-91
2023/12/23 19:49:23;;;;;;;;;;;;;;;;;;6293539;28;19924;-84
2023/12/23 19:52:24;;;;;;;;;;;;;;;;;;6284732;28;19913;-87
2023/12/23 19:55:24;;;;;;;;;;;;;;;;;;6278964;28;20014;-85
2023/12/23 19:58:24;;;;;;;;;;;;;;;;;;6289584;28;19924;-87
2023/12/23 20:01:24;;;;;;;;;;;;;;;;;;6288288;28;19932;-87
2023/12/23 20:04:24;;;;;;;;;;;;;;;;;;6287137;28;19956;-86
2023/12/23 20:07:24;;;;;;;;;;;;;;;;;;6289141;28;19913;-82
2023/12/23 20:10:25;;;;;;;;;;;;;;;;;;6283272;28;19983;-80
2023/12/23 20:13:25;;;;;;;;;;;;;;;;;;6280270;28;19913;-85
2023/12/23 20:16:25;;;;;;;;;;;;;;;;;;6264507;28;19928;-82
2023/12/23 20:19:25;;;;;;;;;;;;;;;;;;6276779;28;19921;-87
2023/12/23 20:22:25;;;;;;;;;;;;;;;;;;6283415;28;19927;-85
2023/12/23 20:25:25;;;;;;;;;;;;;;;;;;6277055;28;19942;-85
2023/12/23 20:28:25;;;;;;;;;;;;;;;;;;6287595;28;19917;-91
2023/12/23 20:31:26;;;;;;;;;;;;;;;;;;6292333;28;20158;-88